A.b. York — WDJ2304 — position and weather

sailwx.info

Track history (hours):
 
Tides and Currents Weather Stations Pressure Air Temp Water Temp Dewpoint Dewpoint Depression Visibility Wind Speed Wind Dir Waves Ship Positions

A.b. York

Owner: Florida Marine, LLC, Mandeville, LA. More information available from US FCC via Universal Licensing System and Coast Guard Vessel Documentation Center.

Last reported at 2018-May-08 03:00 UTC. Time now 2018-May-25 18:54 UTC.
Position N 32°45' W 091°09'.
Warning: this ship's position is 17 days out of date.

Length 37 m; draft 3 m.

Type: Other ship. MMSI: 367757130.

Date/timePositionNaut miles runAvg speedWind from/ knotsBaromVisibWave heightAir tempDewpointWater temp
2018-May-08 03:00N 32°45' W 091°09'2 3.8
2018-May-08 02:30N 32°44' W 091°07'2 4.6
2018-May-08 02:00N 32°44' W 091°04'3 4.0
2018-May-08 01:20N 32°41' W 091°05'2 5.4
2018-May-08 01:00N 32°41' W 091°07'4 4.7
2018-May-08 00:06N 32°37' W 091°09'1 5.8
2018-May-08 00:01N 32°36' W 091°08'2 4.8
2018-May-07 23:30N 32°34' W 091°07'2 4.9
2018-May-07 23:00N 32°32' W 091°07'2 4.5
2018-May-07 22:30N 32°29' W 091°07'2 4.5
2018-May-07 22:01N 32°28' W 091°05'2 4.9
2018-May-07 21:31N 32°26' W 091°03'2 4.2
2018-May-07 21:01N 32°25' W 091°01'2 4.0
2018-May-07 20:30N 32°23' W 090°60'2 4.3
2018-May-07 20:01N 32°21' W 090°60'2 3.7
2018-May-07 19:31N 32°21' W 090°57'0 0.6
2018-May-07 19:01N 32°21' W 090°57'2 3.8
2018-May-07 18:30N 32°20' W 090°55'2 3.9
2018-May-07 18:01N 32°18' W 090°55'2 4.9
2018-May-07 17:30N 32°17' W 090°57'2 3.6
2018-May-07 17:01N 32°15' W 090°58'2 4.0
2018-May-07 16:30N 32°13' W 090°59'2 4.4
2018-May-07 16:01N 32°11' W 090°60'2 4.4
2018-May-07 15:30N 32°09' W 090°60'2 4.1
2018-May-07 15:00N 32°08' W 091°02'3 4.2
2018-May-07 14:16N 32°08' W 091°05'1 4.1
2018-May-07 14:00N 32°07' W 091°06'3 5.1
2018-May-07 13:29N 32°05' W 091°04'2 4.3
2018-May-07 13:00N 32°03' W 091°04'2 4.9
2018-May-07 12:31N 32°00' W 091°05'2 4.1
2018-May-07 12:01N 31°59' W 091°07'2 4.4
2018-May-07 11:30N 31°59' W 091°10'2 4.3
2018-May-07 11:01N 31°57' W 091°11'2 4.5
2018-May-07 10:29N 31°55' W 091°12'4 4.3
2018-May-07 09:33N 31°52' W 091°15'0 4.4
2018-May-07 09:30N 31°52' W 091°15'3 4.6
2018-May-07 08:55N 31°52' W 091°18'2 4.0
2018-May-07 08:30N 31°51' W 091°20'2 4.1
2018-May-07 08:01N 31°49' W 091°21'2 4.9
2018-May-07 07:31N 31°46' W 091°22'2 4.7
2018-May-07 07:00N 31°44' W 091°23'2 4.7
2018-May-07 06:31N 31°42' W 091°24'  
2018-May-03 15:30N 29°56' W 093°03'3 5.1
2018-May-03 14:59N 29°56' W 093°06'2 5.2
2018-May-03 14:31N 29°56' W 093°09'2 4.8
2018-May-03 14:01N 29°58' W 093°11'3 5.0
2018-May-03 13:30N 29°60' W 093°13'3 5.1
2018-May-03 13:00N 30°02' W 093°15'2 4.9
2018-May-03 12:31N 30°04' W 093°16'2 4.0
2018-May-03 12:01N 30°05' W 093°18'1 1.6
2018-May-03 11:30N 30°06' W 093°18'0 0.0
2018-May-03 11:01N 30°06' W 093°18'0 0.4
2018-May-03 10:31N 30°06' W 093°18'2 3.8
2018-May-03 10:01N 30°05' W 093°20'2 4.9
2018-May-03 09:31N 30°04' W 093°22'3 5.2
2018-May-03 09:01N 30°04' W 093°25'3 5.2
2018-May-03 08:31N 30°04' W 093°28'3 5.2
2018-May-03 08:01N 30°04' W 093°31'3 5.1
2018-May-03 07:27N 30°04' W 093°35'2 4.9
2018-May-03 07:00N 30°04' W 093°37'2 4.9
2018-May-03 06:30N 30°04' W 093°40'3 4.8
2018-May-03 05:59N 30°03' W 093°43'2 4.3
2018-May-03 05:31N 30°02' W 093°44'2 4.8
2018-May-03 05:01N 29°60' W 093°46'4 8.5
2018-May-03 04:31N 29°58' W 093°51'2 4.8
2018-May-03 04:00N 29°56' W 093°52'0 0.0
2018-May-03 03:29N 29°56' W 093°52'0 0.0
2018-May-03 03:00N 29°56' W 093°52'0 0.1
2018-May-03 02:31N 29°56' W 093°52'0 0.0
2018-May-03 02:01N 29°56' W 093°52'0 0.1
2018-May-03 01:31N 29°56' W 093°52'0 0.3
2018-May-03 01:00N 29°56' W 093°52'2 4.7
2018-May-03 00:31N 29°59' W 093°52'3 5.1
2018-May-03 00:01N 29°59' W 093°55'2 4.6
2018-May-02 23:30N 29°60' W 093°57'0 0.9
2018-May-02 23:00N 29°60' W 093°57'0 0.0
2018-May-02 22:30N 29°60' W 093°57'0 0.0
2018-May-02 22:00N 29°60' W 093°57'0 0.0
2018-May-02 21:30N 29°60' W 093°57'0 0.0
2018-May-02 21:01N 29°60' W 093°57'0 0.0
2018-May-02 20:31N 29°60' W 093°57'0 0.0
2018-May-02 20:00N 29°60' W 093°57'0 0.0
2018-May-02 19:31N 29°60' W 093°57'0 0.0
2018-May-02 19:01N 29°60' W 093°57'0 0.0
2018-May-02 18:30N 29°60' W 093°57'0 0.0
2018-May-02 18:01N 29°60' W 093°57'0 0.0
2018-May-02 17:31N 29°60' W 093°57'0 0.0
2018-May-02 17:01N 29°60' W 093°57'0 0.0
2018-May-02 16:30N 29°60' W 093°57'0 0.0
2018-May-02 16:00N 29°60' W 093°57'0 0.0
2018-May-02 15:31N 29°60' W 093°57'0 0.0
2018-May-02 15:01N 29°60' W 093°57'0 0.0
2018-May-02 14:30N 29°60' W 093°57'0 0.0
2018-May-02 14:00N 29°60' W 093°57'0 0.0
2018-May-02 13:30N 29°60' W 093°57'0 0.0
2018-May-02 13:00N 29°60' W 093°57'0 0.0
2018-May-02 12:30N 29°60' W 093°57'0 0.0
2018-May-02 12:00N 29°60' W 093°57'0 0.0
2018-May-02 11:30N 29°60' W 093°57'0 0.0
2018-May-02 11:00N 29°60' W 093°57'0 0.0
2018-May-02 10:30N 29°60' W 093°57'0 0.0
2018-May-02 10:01N 29°60' W 093°57'0 0.0
2018-May-02 09:28N 29°60' W 093°57'0 0.0
2018-May-02 09:01N 29°60' W 093°57'0 0.0
2018-May-02 08:30N 29°60' W 093°57'0 0.0
2018-May-02 08:00N 29°60' W 093°57'0 0.0
2018-May-02 07:30N 29°60' W 093°57'0 0.0
2018-May-02 07:01N 29°60' W 093°57'0 0.0
2018-May-02 06:31N 29°60' W 093°57'0 0.0
2018-May-02 06:00N 29°60' W 093°57'0 0.0
2018-May-02 05:30N 29°60' W 093°57'0 0.0
2018-May-02 05:01N 29°60' W 093°57'0 0.0
2018-May-02 04:31N 29°60' W 093°57'0 0.0
2018-May-02 04:01N 29°60' W 093°57'0 0.0
2018-May-02 03:30N 29°60' W 093°57'0 0.0
2018-May-02 03:00N 29°60' W 093°57'0 0.0
2018-May-02 02:30N 29°60' W 093°57'0 0.0
2018-May-02 02:00N 29°60' W 093°57'0 0.0
2018-May-02 01:31N 29°60' W 093°57'0 0.0
2018-May-02 01:00N 29°60' W 093°57'0 0.0
2018-May-02 00:30N 29°60' W 093°57'0 0.0
2018-May-02 00:01N 29°60' W 093°57'0 0.0
2018-May-01 23:30N 29°60' W 093°57'0 0.0
2018-May-01 23:00N 29°60' W 093°57'0 0.0
2018-May-01 22:30N 29°60' W 093°57'0 0.0
2018-May-01 22:00N 29°60' W 093°57'0 0.0
2018-May-01 21:30N 29°60' W 093°57'0 0.5
2018-May-01 21:01N 29°60' W 093°56'4 7.1
2018-May-01 20:30N 29°59' W 093°52'1 3.0
2018-May-01 20:00N 29°58' W 093°51'1 1.8
2018-May-01 19:31N 29°59' W 093°52'4 7.7
2018-May-01 19:00N 29°59' W 093°56'3 5.5
2018-May-01 18:31N 30°01' W 093°59'1 1.6
2018-May-01 18:00N 30°01' W 093°59'0 0.0
2018-May-01 17:30N 30°01' W 093°59'0 0.0
2018-May-01 17:01N 30°01' W 093°59'0 0.0
2018-May-01 16:30N 30°01' W 093°59'0 0.0
2018-May-01 16:01N 30°01' W 093°59'0 0.0
2018-May-01 15:30N 30°01' W 093°59'0 0.0
2018-May-01 15:01N 30°01' W 093°59'0 0.0
2018-May-01 14:30N 30°01' W 093°59'0 0.0
2018-May-01 14:00N 30°01' W 093°59'0 0.0
2018-May-01 13:31N 30°01' W 093°59'0 0.0
2018-May-01 13:01N 30°01' W 093°59'0 0.2
2018-May-01 12:30N 30°01' W 093°59'1 1.0
2018-May-01 12:00N 30°01' W 093°59'3 5.5
2018-May-01 11:31N 29°60' W 093°56'3 6.9
2018-May-01 11:01N 29°59' W 093°52'3 5.5
2018-May-01 10:30N 29°56' W 093°52'3 6.9
2018-May-01 10:01N 29°53' W 093°55'3 6.4
2018-May-01 09:30N 29°51' W 093°57'3 5.2
2018-May-01 09:00N 29°49' W 093°59'3 5.2
2018-May-01 08:31N 29°47' W 094°01'3 5.6
2018-May-01 08:01N 29°45' W 094°04'3 5.6
2018-May-01 07:30N 29°44' W 094°06'3 5.7
2018-May-01 07:00N 29°42' W 094°09'3 5.7
2018-May-01 06:30N 29°41' W 094°12'3 5.8
2018-May-01 06:00N 29°40' W 094°15'3 5.7
2018-May-01 05:31N 29°38' W 094°18'3 5.7
2018-May-01 04:58N 29°37' W 094°21'3 5.1
2018-May-01 04:25N 29°36' W 094°24'3 4.5
2018-May-01 03:44N 29°34' W 094°27'1 5.4
2018-May-01 03:30N 29°33' W 094°28'3 5.5
2018-May-01 02:53N 29°31' W 094°31'0 1.1
2018-May-01 02:29N 29°31' W 094°31'1 1.6
2018-May-01 01:59N 29°31' W 094°32'3 6.1
2018-May-01 01:29N 29°29' W 094°35'3 6.9
2018-May-01 01:00N 29°28' W 094°39'4 7.1
2018-May-01 00:26N 29°26' W 094°43'3 4.5
2018-Apr-30 23:49N 29°24' W 094°45'3 7.0
2018-Apr-30 23:25N 29°22' W 094°47'4 6.7
2018-Apr-30 22:53N 29°25' W 094°50'3 8.3
2018-Apr-30 22:28N 29°28' W 094°51'3 6.5
2018-Apr-30 22:00N 29°31' W 094°53'3 6.3
2018-Apr-30 21:30N 29°33' W 094°55'3 6.2
2018-Apr-30 21:00N 29°36' W 094°57'3 6.4
2018-Apr-30 20:31N 29°39' W 094°58'3 6.9
2018-Apr-30 20:00N 29°42' W 095°00'3 6.2
2018-Apr-30 19:31N 29°44' W 095°03'3 6.0
2018-Apr-30 18:59N 29°47' W 095°04'1 0.6
2018-Apr-30 17:46N 29°47' W 095°04'0 0.6
2018-Apr-30 17:27N 29°47' W 095°04'2 0.2
2018-Apr-30 07:41N 29°46' W 095°06'0 0.2
2018-Apr-30 07:31N 29°46' W 095°06'0 0.0
2018-Apr-30 06:55N 29°46' W 095°06'0 0.0
2018-Apr-30 06:30N 29°46' W 095°06'0 0.0
2018-Apr-30 05:59N 29°46' W 095°06'0 0.0
2018-Apr-30 05:28N 29°46' W 095°06'0 0.0
2018-Apr-30 03:29N 29°46' W 095°06'0 0.0
2018-Apr-30 02:49N 29°46' W 095°06'0 0.0
2018-Apr-30 02:23N 29°46' W 095°06'0 0.0
2018-Apr-30 01:59N 29°46' W 095°06'0 0.0
2018-Apr-30 01:29N 29°46' W 095°06'0 0.0
2018-Apr-29 16:25N 29°46' W 095°06'1 1.2
2018-Apr-29 15:18N 29°47' W 095°05'1 2.9
2018-Apr-29 15:00N 29°46' W 095°05'3 6.5
2018-Apr-29 14:30N 29°44' W 095°02'3 6.3
2018-Apr-29 14:01N 29°41' W 094°59'4 7.4
2018-Apr-29 13:31N 29°38' W 094°58'4 7.3
2018-Apr-29 13:01N 29°35' W 094°56'4 7.6
2018-Apr-29 12:31N 29°32' W 094°53'4 8.0
2018-Apr-29 12:00N 29°28' W 094°51'5 8.7
2018-Apr-29 11:28N 29°24' W 094°49'3 5.2
2018-Apr-29 10:59N 29°23' W 094°46'2 4.7
2018-Apr-29 10:30N 29°25' W 094°44'2 4.1
2018-Apr-29 09:59N 29°26' W 094°42'2 4.7
2018-Apr-29 09:30N 29°28' W 094°40'2 4.8
2018-Apr-29 09:00N 29°28' W 094°38'2 4.9
2018-Apr-29 08:30N 29°29' W 094°35'3 5.3
2018-Apr-29 07:59N 29°30' W 094°32'3 5.1
2018-Apr-29 07:21N 29°32' W 094°29'1 1.6
2018-Apr-29 07:00N 29°32' W 094°29'3 3.3
2018-Apr-29 06:04N 29°34' W 094°26'1 4.4
2018-Apr-29 05:54N 29°35' W 094°25'2 4.0
2018-Apr-29 05:30N 29°36' W 094°24'2 4.0
2018-Apr-29 05:00N 29°36' W 094°22'1 1.1
2018-Apr-29 04:30N 29°37' W 094°21'2 4.3
2018-Apr-29 04:01N 29°38' W 094°19'2 4.7
2018-Apr-29 03:30N 29°39' W 094°17'2 4.7
2018-Apr-29 03:00N 29°40' W 094°14'2 4.8
2018-Apr-29 02:30N 29°41' W 094°12'2 4.7
2018-Apr-29 02:00N 29°42' W 094°09'2 3.6
2018-Apr-29 01:30N 29°43' W 094°07'3 5.0
2018-Apr-29 01:00N 29°44' W 094°05'3 5.1
2018-Apr-29 00:31N 29°46' W 094°03'3 5.3
2018-Apr-29 00:00N 29°48' W 094°01'2 5.0
2018-Apr-28 23:31N 29°49' W 093°58'3 5.3
2018-Apr-28 23:01N 29°51' W 093°57'3 5.3
2018-Apr-28 22:31N 29°53' W 093°55'3 5.1
2018-Apr-28 22:01N 29°55' W 093°53'1 2.1
2018-Apr-28 21:31N 29°56' W 093°52'0 0.1
2018-Apr-28 21:00N 29°56' W 093°52'0 0.0
2018-Apr-28 20:31N 29°56' W 093°52'0 0.1
2018-Apr-28 20:01N 29°56' W 093°52'0 0.0
2018-Apr-28 19:30N 29°56' W 093°52'0 0.0
2018-Apr-28 19:01N 29°56' W 093°52'2 3.1
2018-Apr-28 18:30N 29°58' W 093°51'3 6.0
2018-Apr-28 18:00N 29°59' W 093°48'3 6.7
2018-Apr-28 17:30N 30°01' W 093°45'3 6.2
2018-Apr-28 17:01N 30°03' W 093°43'3 5.7
2018-Apr-28 16:27N 30°04' W 093°39'3 5.4
2018-Apr-28 15:59N 30°04' W 093°36'2 5.1
2018-Apr-28 15:30N 30°04' W 093°33'3 5.2
2018-Apr-28 15:00N 30°04' W 093°30'3 5.3
2018-Apr-28 14:31N 30°04' W 093°27'3 5.3
2018-Apr-28 14:01N 30°04' W 093°24'2 5.0
2018-Apr-28 13:31N 30°04' W 093°21'1 1.5
2018-Apr-28 13:01N 30°04' W 093°21'0 0.0
2018-Apr-28 12:31N 30°04' W 093°21'1 2.7
2018-Apr-28 12:01N 30°05' W 093°20'2 4.7
2018-Apr-28 11:30N 30°08' W 093°20'2 4.2
2018-Apr-28 11:01N 30°10' W 093°19'0 0.1
2018-Apr-28 10:31N 30°10' W 093°19'0 0.0
2018-Apr-28 10:00N 30°10' W 093°19'0 0.0
2018-Apr-28 09:31N 30°10' W 093°19'0 0.0
2018-Apr-28 09:01N 30°10' W 093°19'0 0.0
2018-Apr-28 08:31N 30°10' W 093°19'0 0.0
2018-Apr-28 08:01N 30°10' W 093°19'0 0.0
2018-Apr-28 07:31N 30°10' W 093°19'0 0.0
2018-Apr-28 07:00N 30°10' W 093°19'0 0.0
2018-Apr-28 06:31N 30°10' W 093°19'0 0.0
2018-Apr-28 06:01N 30°10' W 093°19'0 0.0
2018-Apr-28 05:30N 30°10' W 093°19'0 0.0
2018-Apr-28 05:01N 30°10' W 093°19'0 0.0
2018-Apr-28 04:30N 30°10' W 093°19'0 0.0
2018-Apr-28 04:00N 30°10' W 093°19'0 0.0
2018-Apr-28 03:30N 30°10' W 093°19'0 0.0
2018-Apr-28 03:01N 30°10' W 093°19'  
Track history (hours):
 
Tides and Currents Weather Stations Pressure Air Temp Water Temp Dewpoint Dewpoint Depression Visibility Wind Speed Wind Dir Waves Ship Positions

A.b. York

Owner: Florida Marine, LLC, Mandeville, LA. More information available from US FCC via Universal Licensing System and Coast Guard Vessel Documentation Center.

Last reported at 2018-May-08 03:00 UTC. Time now 2018-May-25 18:54 UTC.
Position N 32°45' W 091°09'.
Warning: this ship's position is 17 days out of date.

Length 37 m; draft 3 m.

Type: Other ship. MMSI: 367757130.

Date/timePositionNaut miles runAvg speedWind from/ knotsBaromVisibWave heightAir tempDewpointWater temp
2018-May-08 03:00N 32°45' W 091°09'2 3.8
2018-May-08 02:30N 32°44' W 091°07'2 4.6
2018-May-08 02:00N 32°44' W 091°04'3 4.0
2018-May-08 01:20N 32°41' W 091°05'2 5.4
2018-May-08 01:00N 32°41' W 091°07'4 4.7
2018-May-08 00:06N 32°37' W 091°09'1 5.8
2018-May-08 00:01N 32°36' W 091°08'2 4.8
2018-May-07 23:30N 32°34' W 091°07'2 4.9
2018-May-07 23:00N 32°32' W 091°07'2 4.5
2018-May-07 22:30N 32°29' W 091°07'2 4.5
2018-May-07 22:01N 32°28' W 091°05'2 4.9
2018-May-07 21:31N 32°26' W 091°03'2 4.2
2018-May-07 21:01N 32°25' W 091°01'2 4.0
2018-May-07 20:30N 32°23' W 090°60'2 4.3
2018-May-07 20:01N 32°21' W 090°60'2 3.7
2018-May-07 19:31N 32°21' W 090°57'0 0.6
2018-May-07 19:01N 32°21' W 090°57'2 3.8
2018-May-07 18:30N 32°20' W 090°55'2 3.9
2018-May-07 18:01N 32°18' W 090°55'2 4.9
2018-May-07 17:30N 32°17' W 090°57'2 3.6
2018-May-07 17:01N 32°15' W 090°58'2 4.0
2018-May-07 16:30N 32°13' W 090°59'2 4.4
2018-May-07 16:01N 32°11' W 090°60'2 4.4
2018-May-07 15:30N 32°09' W 090°60'2 4.1
2018-May-07 15:00N 32°08' W 091°02'3 4.2
2018-May-07 14:16N 32°08' W 091°05'1 4.1
2018-May-07 14:00N 32°07' W 091°06'3 5.1
2018-May-07 13:29N 32°05' W 091°04'2 4.3
2018-May-07 13:00N 32°03' W 091°04'2 4.9
2018-May-07 12:31N 32°00' W 091°05'2 4.1
2018-May-07 12:01N 31°59' W 091°07'2 4.4
2018-May-07 11:30N 31°59' W 091°10'2 4.3
2018-May-07 11:01N 31°57' W 091°11'2 4.5
2018-May-07 10:29N 31°55' W 091°12'4 4.3
2018-May-07 09:33N 31°52' W 091°15'0 4.4
2018-May-07 09:30N 31°52' W 091°15'3 4.6
2018-May-07 08:55N 31°52' W 091°18'2 4.0
2018-May-07 08:30N 31°51' W 091°20'2 4.1
2018-May-07 08:01N 31°49' W 091°21'2 4.9
2018-May-07 07:31N 31°46' W 091°22'2 4.7
2018-May-07 07:00N 31°44' W 091°23'2 4.7
2018-May-07 06:31N 31°42' W 091°24'  
2018-May-03 15:30N 29°56' W 093°03'3 5.1
2018-May-03 14:59N 29°56' W 093°06'2 5.2
2018-May-03 14:31N 29°56' W 093°09'2 4.8
2018-May-03 14:01N 29°58' W 093°11'3 5.0
2018-May-03 13:30N 29°60' W 093°13'3 5.1
2018-May-03 13:00N 30°02' W 093°15'2 4.9
2018-May-03 12:31N 30°04' W 093°16'2 4.0
2018-May-03 12:01N 30°05' W 093°18'1 1.6
2018-May-03 11:30N 30°06' W 093°18'0 0.0
2018-May-03 11:01N 30°06' W 093°18'0 0.4
2018-May-03 10:31N 30°06' W 093°18'2 3.8
2018-May-03 10:01N 30°05' W 093°20'2 4.9
2018-May-03 09:31N 30°04' W 093°22'3 5.2
2018-May-03 09:01N 30°04' W 093°25'3 5.2
2018-May-03 08:31N 30°04' W 093°28'3 5.2
2018-May-03 08:01N 30°04' W 093°31'3 5.1
2018-May-03 07:27N 30°04' W 093°35'2 4.9
2018-May-03 07:00N 30°04' W 093°37'2 4.9
2018-May-03 06:30N 30°04' W 093°40'3 4.8
2018-May-03 05:59N 30°03' W 093°43'2 4.3
2018-May-03 05:31N 30°02' W 093°44'2 4.8
2018-May-03 05:01N 29°60' W 093°46'4 8.5
2018-May-03 04:31N 29°58' W 093°51'2 4.8
2018-May-03 04:00N 29°56' W 093°52'0 0.0
2018-May-03 03:29N 29°56' W 093°52'0 0.0
2018-May-03 03:00N 29°56' W 093°52'0 0.1
2018-May-03 02:31N 29°56' W 093°52'0 0.0
2018-May-03 02:01N 29°56' W 093°52'0 0.1
2018-May-03 01:31N 29°56' W 093°52'0 0.3
2018-May-03 01:00N 29°56' W 093°52'2 4.7
2018-May-03 00:31N 29°59' W 093°52'3 5.1
2018-May-03 00:01N 29°59' W 093°55'2 4.6
2018-May-02 23:30N 29°60' W 093°57'0 0.9
2018-May-02 23:00N 29°60' W 093°57'0 0.0
2018-May-02 22:30N 29°60' W 093°57'0 0.0
2018-May-02 22:00N 29°60' W 093°57'0 0.0
2018-May-02 21:30N 29°60' W 093°57'0 0.0
2018-May-02 21:01N 29°60' W 093°57'0 0.0
2018-May-02 20:31N 29°60' W 093°57'0 0.0
2018-May-02 20:00N 29°60' W 093°57'0 0.0
2018-May-02 19:31N 29°60' W 093°57'0 0.0
2018-May-02 19:01N 29°60' W 093°57'0 0.0
2018-May-02 18:30N 29°60' W 093°57'0 0.0
2018-May-02 18:01N 29°60' W 093°57'0 0.0
2018-May-02 17:31N 29°60' W 093°57'0 0.0
2018-May-02 17:01N 29°60' W 093°57'0 0.0
2018-May-02 16:30N 29°60' W 093°57'0 0.0
2018-May-02 16:00N 29°60' W 093°57'0 0.0
2018-May-02 15:31N 29°60' W 093°57'0 0.0
2018-May-02 15:01N 29°60' W 093°57'0 0.0
2018-May-02 14:30N 29°60' W 093°57'0 0.0
2018-May-02 14:00N 29°60' W 093°57'0 0.0
2018-May-02 13:30N 29°60' W 093°57'0 0.0
2018-May-02 13:00N 29°60' W 093°57'0 0.0
2018-May-02 12:30N 29°60' W 093°57'0 0.0
2018-May-02 12:00N 29°60' W 093°57'0 0.0
2018-May-02 11:30N 29°60' W 093°57'0 0.0
2018-May-02 11:00N 29°60' W 093°57'0 0.0
2018-May-02 10:30N 29°60' W 093°57'0 0.0
2018-May-02 10:01N 29°60' W 093°57'0 0.0
2018-May-02 09:28N 29°60' W 093°57'0 0.0
2018-May-02 09:01N 29°60' W 093°57'0 0.0
2018-May-02 08:30N 29°60' W 093°57'0 0.0
2018-May-02 08:00N 29°60' W 093°57'0 0.0
2018-May-02 07:30N 29°60' W 093°57'0 0.0
2018-May-02 07:01N 29°60' W 093°57'0 0.0
2018-May-02 06:31N 29°60' W 093°57'0 0.0
2018-May-02 06:00N 29°60' W 093°57'0 0.0
2018-May-02 05:30N 29°60' W 093°57'0 0.0
2018-May-02 05:01N 29°60' W 093°57'0 0.0
2018-May-02 04:31N 29°60' W 093°57'0 0.0
2018-May-02 04:01N 29°60' W 093°57'0 0.0
2018-May-02 03:30N 29°60' W 093°57'0 0.0
2018-May-02 03:00N 29°60' W 093°57'0 0.0
2018-May-02 02:30N 29°60' W 093°57'0 0.0
2018-May-02 02:00N 29°60' W 093°57'0 0.0
2018-May-02 01:31N 29°60' W 093°57'0 0.0
2018-May-02 01:00N 29°60' W 093°57'0 0.0
2018-May-02 00:30N 29°60' W 093°57'0 0.0
2018-May-02 00:01N 29°60' W 093°57'0 0.0
2018-May-01 23:30N 29°60' W 093°57'0 0.0
2018-May-01 23:00N 29°60' W 093°57'0 0.0
2018-May-01 22:30N 29°60' W 093°57'0 0.0
2018-May-01 22:00N 29°60' W 093°57'0 0.0
2018-May-01 21:30N 29°60' W 093°57'0 0.5
2018-May-01 21:01N 29°60' W 093°56'4 7.1
2018-May-01 20:30N 29°59' W 093°52'1 3.0
2018-May-01 20:00N 29°58' W 093°51'1 1.8
2018-May-01 19:31N 29°59' W 093°52'4 7.7
2018-May-01 19:00N 29°59' W 093°56'3 5.5
2018-May-01 18:31N 30°01' W 093°59'1 1.6
2018-May-01 18:00N 30°01' W 093°59'0 0.0
2018-May-01 17:30N 30°01' W 093°59'0 0.0
2018-May-01 17:01N 30°01' W 093°59'0 0.0
2018-May-01 16:30N 30°01' W 093°59'0 0.0
2018-May-01 16:01N 30°01' W 093°59'0 0.0
2018-May-01 15:30N 30°01' W 093°59'0 0.0
2018-May-01 15:01N 30°01' W 093°59'0 0.0
2018-May-01 14:30N 30°01' W 093°59'0 0.0
2018-May-01 14:00N 30°01' W 093°59'0 0.0
2018-May-01 13:31N 30°01' W 093°59'0 0.0
2018-May-01 13:01N 30°01' W 093°59'0 0.2
2018-May-01 12:30N 30°01' W 093°59'1 1.0
2018-May-01 12:00N 30°01' W 093°59'3 5.5
2018-May-01 11:31N 29°60' W 093°56'3 6.9
2018-May-01 11:01N 29°59' W 093°52'3 5.5
2018-May-01 10:30N 29°56' W 093°52'3 6.9
2018-May-01 10:01N 29°53' W 093°55'3 6.4
2018-May-01 09:30N 29°51' W 093°57'3 5.2
2018-May-01 09:00N 29°49' W 093°59'3 5.2
2018-May-01 08:31N 29°47' W 094°01'3 5.6
2018-May-01 08:01N 29°45' W 094°04'3 5.6
2018-May-01 07:30N 29°44' W 094°06'3 5.7
2018-May-01 07:00N 29°42' W 094°09'3 5.7
2018-May-01 06:30N 29°41' W 094°12'3 5.8
2018-May-01 06:00N 29°40' W 094°15'3 5.7
2018-May-01 05:31N 29°38' W 094°18'3 5.7
2018-May-01 04:58N 29°37' W 094°21'3 5.1
2018-May-01 04:25N 29°36' W 094°24'3 4.5
2018-May-01 03:44N 29°34' W 094°27'1 5.4
2018-May-01 03:30N 29°33' W 094°28'3 5.5
2018-May-01 02:53N 29°31' W 094°31'0 1.1
2018-May-01 02:29N 29°31' W 094°31'1 1.6
2018-May-01 01:59N 29°31' W 094°32'3 6.1
2018-May-01 01:29N 29°29' W 094°35'3 6.9
2018-May-01 01:00N 29°28' W 094°39'4 7.1
2018-May-01 00:26N 29°26' W 094°43'3 4.5
2018-Apr-30 23:49N 29°24' W 094°45'3 7.0
2018-Apr-30 23:25N 29°22' W 094°47'4 6.7
2018-Apr-30 22:53N 29°25' W 094°50'3 8.3
2018-Apr-30 22:28N 29°28' W 094°51'3 6.5
2018-Apr-30 22:00N 29°31' W 094°53'3 6.3
2018-Apr-30 21:30N 29°33' W 094°55'3 6.2
2018-Apr-30 21:00N 29°36' W 094°57'3 6.4
2018-Apr-30 20:31N 29°39' W 094°58'3 6.9
2018-Apr-30 20:00N 29°42' W 095°00'3 6.2
2018-Apr-30 19:31N 29°44' W 095°03'3 6.0
2018-Apr-30 18:59N 29°47' W 095°04'1 0.6
2018-Apr-30 17:46N 29°47' W 095°04'0 0.6
2018-Apr-30 17:27N 29°47' W 095°04'2 0.2
2018-Apr-30 07:41N 29°46' W 095°06'0 0.2
2018-Apr-30 07:31N 29°46' W 095°06'0 0.0
2018-Apr-30 06:55N 29°46' W 095°06'0 0.0
2018-Apr-30 06:30N 29°46' W 095°06'0 0.0
2018-Apr-30 05:59N 29°46' W 095°06'0 0.0
2018-Apr-30 05:28N 29°46' W 095°06'0 0.0
2018-Apr-30 03:29N 29°46' W 095°06'0 0.0
2018-Apr-30 02:49N 29°46' W 095°06'0 0.0
2018-Apr-30 02:23N 29°46' W 095°06'0 0.0
2018-Apr-30 01:59N 29°46' W 095°06'0 0.0
2018-Apr-30 01:29N 29°46' W 095°06'0 0.0
2018-Apr-29 16:25N 29°46' W 095°06'1 1.2
2018-Apr-29 15:18N 29°47' W 095°05'1 2.9
2018-Apr-29 15:00N 29°46' W 095°05'3 6.5
2018-Apr-29 14:30N 29°44' W 095°02'3 6.3
2018-Apr-29 14:01N 29°41' W 094°59'4 7.4
2018-Apr-29 13:31N 29°38' W 094°58'4 7.3
2018-Apr-29 13:01N 29°35' W 094°56'4 7.6
2018-Apr-29 12:31N 29°32' W 094°53'4 8.0
2018-Apr-29 12:00N 29°28' W 094°51'5 8.7
2018-Apr-29 11:28N 29°24' W 094°49'3 5.2
2018-Apr-29 10:59N 29°23' W 094°46'2 4.7
2018-Apr-29 10:30N 29°25' W 094°44'2 4.1
2018-Apr-29 09:59N 29°26' W 094°42'2 4.7
2018-Apr-29 09:30N 29°28' W 094°40'2 4.8
2018-Apr-29 09:00N 29°28' W 094°38'2 4.9
2018-Apr-29 08:30N 29°29' W 094°35'3 5.3
2018-Apr-29 07:59N 29°30' W 094°32'3 5.1
2018-Apr-29 07:21N 29°32' W 094°29'1 1.6
2018-Apr-29 07:00N 29°32' W 094°29'3 3.3
2018-Apr-29 06:04N 29°34' W 094°26'1 4.4
2018-Apr-29 05:54N 29°35' W 094°25'2 4.0
2018-Apr-29 05:30N 29°36' W 094°24'2 4.0
2018-Apr-29 05:00N 29°36' W 094°22'1 1.1
2018-Apr-29 04:30N 29°37' W 094°21'2 4.3
2018-Apr-29 04:01N 29°38' W 094°19'2 4.7
2018-Apr-29 03:30N 29°39' W 094°17'2 4.7
2018-Apr-29 03:00N 29°40' W 094°14'2 4.8
2018-Apr-29 02:30N 29°41' W 094°12'2 4.7
2018-Apr-29 02:00N 29°42' W 094°09'2 3.6
2018-Apr-29 01:30N 29°43' W 094°07'3 5.0
2018-Apr-29 01:00N 29°44' W 094°05'3 5.1
2018-Apr-29 00:31N 29°46' W 094°03'3 5.3
2018-Apr-29 00:00N 29°48' W 094°01'2 5.0
2018-Apr-28 23:31N 29°49' W 093°58'3 5.3
2018-Apr-28 23:01N 29°51' W 093°57'3 5.3
2018-Apr-28 22:31N 29°53' W 093°55'3 5.1
2018-Apr-28 22:01N 29°55' W 093°53'1 2.1
2018-Apr-28 21:31N 29°56' W 093°52'0 0.1
2018-Apr-28 21:00N 29°56' W 093°52'0 0.0
2018-Apr-28 20:31N 29°56' W 093°52'0 0.1
2018-Apr-28 20:01N 29°56' W 093°52'0 0.0
2018-Apr-28 19:30N 29°56' W 093°52'0 0.0
2018-Apr-28 19:01N 29°56' W 093°52'2 3.1
2018-Apr-28 18:30N 29°58' W 093°51'3 6.0
2018-Apr-28 18:00N 29°59' W 093°48'3 6.7
2018-Apr-28 17:30N 30°01' W 093°45'3 6.2
2018-Apr-28 17:01N 30°03' W 093°43'3 5.7
2018-Apr-28 16:27N 30°04' W 093°39'3 5.4
2018-Apr-28 15:59N 30°04' W 093°36'2 5.1
2018-Apr-28 15:30N 30°04' W 093°33'3 5.2
2018-Apr-28 15:00N 30°04' W 093°30'3 5.3
2018-Apr-28 14:31N 30°04' W 093°27'3 5.3
2018-Apr-28 14:01N 30°04' W 093°24'2 5.0
2018-Apr-28 13:31N 30°04' W 093°21'1 1.5
2018-Apr-28 13:01N 30°04' W 093°21'0 0.0
2018-Apr-28 12:31N 30°04' W 093°21'1 2.7
2018-Apr-28 12:01N 30°05' W 093°20'2 4.7
2018-Apr-28 11:30N 30°08' W 093°20'2 4.2
2018-Apr-28 11:01N 30°10' W 093°19'0 0.1
2018-Apr-28 10:31N 30°10' W 093°19'0 0.0
2018-Apr-28 10:00N 30°10' W 093°19'0 0.0
2018-Apr-28 09:31N 30°10' W 093°19'0 0.0
2018-Apr-28 09:01N 30°10' W 093°19'0 0.0
2018-Apr-28 08:31N 30°10' W 093°19'0 0.0
2018-Apr-28 08:01N 30°10' W 093°19'0 0.0
2018-Apr-28 07:31N 30°10' W 093°19'0 0.0
2018-Apr-28 07:00N 30°10' W 093°19'0 0.0
2018-Apr-28 06:31N 30°10' W 093°19'0 0.0
2018-Apr-28 06:01N 30°10' W 093°19'0 0.0
2018-Apr-28 05:30N 30°10' W 093°19'0 0.0
2018-Apr-28 05:01N 30°10' W 093°19'0 0.0
2018-Apr-28 04:30N 30°10' W 093°19'0 0.0
2018-Apr-28 04:00N 30°10' W 093°19'0 0.0
2018-Apr-28 03:30N 30°10' W 093°19'0 0.0
2018-Apr-28 03:01N 30°10' W 093°19'  

Dump ship's entire track history